createdAt,value
2022-12-01T00:01:10.587Z,10.45
2022-12-01T00:03:37.380Z,10.55
2022-12-01T00:06:10.969Z,9.82
2022-12-01T00:08:37.810Z,9.25
2022-12-01T00:11:09.926Z,10.00
2022-12-01T00:13:36.755Z,9.63
2022-12-01T00:16:17.053Z,10.13
2022-12-01T00:18:44.190Z,9.38
2022-12-01T00:21:19.018Z,8.48
2022-12-01T00:23:47.637Z,9.65
2022-12-01T00:26:15.955Z,8.52
2022-12-01T00:28:42.639Z,8.63
2022-12-01T00:31:11.016Z,9.60
2022-12-01T00:33:37.880Z,8.95
2022-12-01T00:36:05.570Z,8.23
2022-12-01T00:38:33.077Z,8.60
2022-12-01T00:40:59.666Z,8.57
2022-12-01T00:43:26.271Z,8.20
2022-12-01T00:45:52.925Z,8.85
2022-12-01T00:48:19.580Z,8.43
2022-12-01T00:50:46.277Z,8.48
2022-12-01T00:53:13.010Z,9.00
2022-12-01T00:55:40.404Z,8.05
2022-12-01T00:58:07.718Z,8.00
2022-12-01T01:00:34.616Z,9.20
2022-12-01T01:03:01.677Z,10.25
2022-12-01T01:05:28.288Z,10.55
2022-12-01T01:07:54.917Z,15.48
2022-12-01T01:10:22.769Z,9.30
2022-12-01T01:12:49.356Z,11.57
2022-12-01T01:15:16.030Z,11.00
2022-12-01T01:17:42.729Z,8.88
2022-12-01T01:20:09.901Z,9.63
2022-12-01T01:22:36.452Z,8.40
2022-12-01T01:25:03.079Z,10.20
2022-12-01T01:27:29.679Z,8.10
2022-12-01T01:29:56.294Z,8.10
2022-12-01T01:32:22.948Z,9.68
2022-12-01T01:34:49.588Z,8.70
2022-12-01T01:37:16.224Z,9.30
2022-12-01T01:39:42.771Z,8.48
2022-12-01T01:42:13.429Z,9.82
2022-12-01T01:44:57.439Z,10.77
2022-12-01T01:47:33.357Z,9.07
2022-12-01T01:50:06.629Z,9.10
2022-12-01T01:52:40.998Z,9.45
2022-12-01T01:55:08.071Z,10.55
2022-12-01T01:57:35.348Z,9.35
2022-12-01T02:00:08.782Z,9.07
2022-12-01T02:02:40.669Z,9.68
2022-12-01T02:05:12.130Z,10.00
2022-12-01T02:07:40.255Z,9.40
2022-12-01T02:10:10.565Z,9.38
2022-12-01T02:13:16.022Z,11.20
2022-12-01T02:15:53.170Z,8.35
2022-12-01T02:18:25.842Z,11.50
2022-12-01T02:21:14.145Z,12.35
2022-12-01T02:23:59.258Z,8.45
2022-12-01T02:29:33.825Z,10.43
2022-12-01T02:32:24.122Z,9.48
2022-12-01T02:35:08.714Z,9.75
2022-12-01T02:37:38.279Z,11.68
2022-12-01T02:40:33.711Z,11.60
2022-12-01T02:43:09.610Z,13.10
2022-12-01T02:45:44.916Z,10.55
2022-12-01T02:48:16.360Z,22.02
2022-12-01T02:50:45.297Z,19.85
2022-12-01T02:53:17.440Z,15.07
2022-12-01T02:55:49.319Z,12.15
2022-12-01T02:58:16.291Z,17.05
2022-12-01T03:00:56.881Z,19.55
2022-12-01T03:03:37.054Z,13.00
2022-12-01T03:06:15.253Z,14.70
2022-12-01T03:09:04.913Z,18.90
2022-12-01T03:11:42.101Z,11.60
2022-12-01T03:14:15.205Z,14.25
2022-12-01T03:16:51.303Z,10.60
2022-12-01T03:19:36.032Z,10.00
2022-12-01T03:22:08.702Z,10.77
2022-12-01T03:24:37.717Z,12.55
2022-12-01T03:27:06.027Z,12.30
2022-12-01T03:29:44.970Z,14.27
2022-12-01T03:32:24.418Z,17.20
2022-12-01T03:35:16.233Z,23.10
2022-12-01T03:37:57.557Z,19.15
2022-12-01T03:40:27.294Z,22.05
2022-12-01T03:43:13.834Z,21.25
2022-12-01T03:45:51.874Z,17.30
2022-12-01T03:48:18.963Z,21.00
2022-12-01T03:50:56.800Z,18.33
2022-12-01T03:53:29.933Z,16.50
2022-12-01T03:56:02.466Z,18.42
2022-12-01T03:58:35.174Z,15.73
2022-12-01T04:01:05.258Z,13.40
2022-12-01T04:03:32.002Z,16.85
2022-12-01T04:05:59.297Z,10.32
2022-12-01T04:08:26.167Z,15.68
2022-12-01T04:10:52.820Z,14.27
2022-12-01T04:13:25.865Z,13.00
2022-12-01T04:15:54.103Z,11.70
2022-12-01T04:18:21.486Z,13.98
2022-12-01T04:20:49.599Z,15.55
2022-12-01T04:23:36.142Z,15.23
2022-12-01T04:26:04.386Z,14.55
2022-12-01T04:28:31.003Z,14.77
2022-12-01T04:30:57.614Z,15.50
2022-12-01T04:33:24.452Z,13.55
2022-12-01T04:36:00.607Z,14.77
2022-12-01T04:38:30.855Z,14.90
2022-12-01T04:40:58.107Z,16.20
2022-12-01T04:43:24.884Z,14.38
2022-12-01T04:45:51.430Z,23.63
2022-12-01T04:48:18.074Z,15.45
2022-12-01T04:50:44.657Z,15.07
2022-12-01T04:53:11.258Z,15.32
2022-12-01T04:55:39.180Z,19.25
2022-12-01T04:58:06.571Z,17.67
2022-12-01T05:00:33.734Z,25.15
2022-12-01T05:03:00.782Z,20.83
2022-12-01T05:05:27.659Z,21.40
2022-12-01T05:07:54.287Z,21.70
2022-12-01T05:10:21.606Z,13.90
2022-12-01T05:12:48.198Z,18.77
2022-12-01T05:15:14.812Z,17.25
2022-12-01T05:17:43.852Z,14.48
2022-12-01T05:20:37.637Z,17.73
2022-12-01T05:23:06.116Z,15.77
2022-12-01T05:25:33.778Z,14.10
2022-12-01T05:28:00.567Z,18.50
2022-12-01T05:30:28.988Z,24.15
2022-12-01T05:32:55.812Z,16.88
2022-12-01T05:35:22.444Z,21.80
2022-12-01T05:37:49.031Z,15.77
2022-12-01T05:40:15.722Z,15.65
2022-12-01T05:42:42.292Z,16.75
2022-12-01T05:45:09.315Z,23.40
2022-12-01T05:47:35.894Z,20.63
2022-12-01T05:50:05.691Z,15.90
2022-12-01T05:52:35.320Z,15.57
2022-12-01T05:55:03.663Z,14.30
2022-12-01T05:57:31.456Z,13.82
2022-12-01T05:59:58.270Z,16.33
2022-12-01T06:02:26.887Z,14.90
2022-12-01T06:04:53.686Z,15.88
2022-12-01T06:07:21.032Z,15.43
2022-12-01T06:09:48.135Z,15.35
2022-12-01T06:12:15.027Z,15.20
2022-12-01T06:14:41.683Z,14.60
2022-12-01T06:17:08.337Z,15.35
2022-12-01T06:19:34.928Z,15.93
2022-12-01T06:22:01.625Z,14.15
2022-12-01T06:24:28.324Z,15.45
2022-12-01T06:26:54.950Z,16.23
2022-12-01T06:29:21.632Z,14.65
2022-12-01T06:31:48.304Z,14.88
2022-12-01T06:34:15.056Z,14.05
2022-12-01T06:36:41.686Z,15.25
2022-12-01T06:39:12.272Z,13.65
2022-12-01T06:41:39.248Z,16.73
2022-12-01T06:44:05.977Z,13.02
2022-12-01T06:46:32.722Z,15.55
2022-12-01T06:48:59.540Z,15.73
2022-12-01T06:51:26.906Z,14.15
2022-12-01T06:54:02.149Z,17.58
2022-12-01T06:56:31.976Z,16.90
2022-12-01T06:58:58.887Z,18.45
2022-12-01T07:01:26.230Z,19.15
2022-12-01T07:03:52.904Z,19.27
2022-12-01T07:06:19.549Z,17.23
2022-12-01T07:08:46.220Z,20.10
2022-12-01T07:11:15.071Z,16.05
2022-12-01T07:13:45.306Z,17.90
2022-12-01T07:16:12.342Z,16.83
2022-12-01T07:18:39.138Z,15.95
2022-12-01T07:21:08.757Z,17.10
2022-12-01T07:23:35.699Z,18.38
2022-12-01T07:26:08.288Z,16.92
2022-12-01T07:28:34.879Z,15.27
2022-12-01T07:31:07.098Z,15.05
2022-12-01T07:33:34.350Z,16.35
2022-12-01T07:36:01.223Z,17.83
2022-12-01T07:38:29.763Z,15.95
2022-12-01T07:41:11.187Z,13.35
2022-12-01T07:43:38.328Z,16.48
2022-12-01T07:46:08.895Z,19.92
2022-12-01T07:48:37.320Z,16.98
2022-12-01T07:51:05.342Z,18.50
2022-12-01T07:53:32.610Z,18.38
2022-12-01T07:56:04.215Z,13.93
2022-12-01T07:58:33.640Z,16.20
2022-12-01T08:01:06.913Z,18.65
2022-12-01T08:03:33.780Z,19.33
2022-12-01T08:06:01.765Z,22.30
2022-12-01T08:08:28.553Z,22.30
2022-12-01T08:11:00.673Z,21.50
2022-12-01T08:13:27.826Z,25.58
2022-12-01T08:15:54.540Z,26.50
2022-12-01T08:18:21.550Z,19.80
2022-12-01T08:20:48.146Z,17.45
2022-12-01T08:23:14.899Z,15.98
2022-12-01T08:25:41.477Z,16.27
2022-12-01T08:28:08.110Z,16.80
2022-12-01T08:30:34.673Z,15.02
2022-12-01T08:33:01.259Z,19.13
2022-12-01T08:35:27.951Z,23.48
2022-12-01T08:37:54.725Z,18.58
2022-12-01T08:40:21.893Z,19.65
2022-12-01T08:42:48.503Z,16.48
2022-12-01T08:45:15.311Z,17.50
2022-12-01T08:47:41.874Z,18.17
2022-12-01T08:50:08.904Z,23.58
2022-12-01T08:52:35.687Z,24.30
2022-12-01T08:55:03.224Z,26.10
2022-12-01T08:57:30.309Z,26.30
2022-12-01T08:59:56.977Z,23.60
2022-12-01T09:02:23.818Z,21.02
2022-12-01T09:04:51.264Z,22.95
2022-12-01T09:07:24.577Z,26.20
2022-12-01T09:09:53.065Z,20.52
2022-12-01T09:12:19.898Z,26.50
2022-12-01T09:14:48.274Z,19.75
2022-12-01T09:17:16.657Z,25.33
2022-12-01T09:19:44.357Z,29.42
2022-12-01T09:22:11.689Z,29.65
2022-12-01T09:24:38.842Z,25.63
2022-12-01T09:27:05.763Z,29.00
2022-12-01T09:29:33.090Z,35.40
2022-12-01T09:32:00.603Z,34.47
2022-12-01T09:34:29.148Z,32.10
2022-12-01T09:36:57.688Z,41.38
2022-12-01T09:39:24.971Z,31.33
2022-12-01T09:42:09.088Z,36.83
2022-12-01T09:44:36.071Z,37.58
2022-12-01T09:47:27.043Z,42.50
2022-12-01T09:49:58.867Z,49.38
2022-12-01T09:52:28.760Z,40.03
2022-12-01T09:54:59.271Z,45.40
2022-12-01T09:57:38.426Z,52.22
2022-12-01T10:00:12.705Z,36.10
2022-12-01T10:02:52.813Z,46.10
2022-12-01T10:05:22.429Z,46.83
2022-12-01T10:07:56.504Z,51.78
2022-12-01T10:10:42.648Z,53.17
2022-12-01T10:13:35.774Z,44.55
2022-12-01T10:16:14.032Z,67.10
2022-12-01T10:18:46.558Z,49.40
2022-12-01T10:24:21.301Z,67.38
2022-12-01T10:27:15.184Z,63.78
2022-12-01T10:30:05.702Z,48.05
2022-12-01T10:32:55.443Z,61.17
2022-12-01T10:35:36.093Z,44.15
2022-12-01T10:38:06.889Z,70.93
2022-12-01T10:40:36.709Z,60.58
2022-12-01T10:43:03.586Z,62.15
2022-12-01T10:45:37.234Z,50.95
2022-12-01T10:48:23.117Z,61.78
2022-12-01T10:50:50.913Z,59.80
2022-12-01T10:53:23.442Z,61.22
2022-12-01T10:56:01.817Z,45.40
2022-12-01T10:58:28.806Z,36.08
2022-12-01T11:01:00.091Z,47.60
2022-12-01T11:03:31.679Z,49.08
2022-12-01T11:06:01.214Z,71.05
2022-12-01T11:08:40.143Z,48.78
2022-12-01T11:11:26.131Z,54.70
2022-12-01T11:13:54.057Z,50.88
2022-12-01T11:16:52.077Z,34.63
2022-12-01T11:19:32.768Z,35.53
2022-12-01T11:22:01.773Z,30.40
2022-12-01T11:24:42.232Z,38.90
2022-12-01T11:27:23.625Z,41.42
2022-12-01T11:29:54.500Z,43.33
2022-12-01T11:32:29.047Z,45.13
2022-12-01T11:34:59.093Z,37.25
2022-12-01T11:37:32.838Z,40.97
2022-12-01T11:40:20.589Z,40.85
2022-12-01T11:42:52.765Z,35.67
2022-12-01T11:45:22.135Z,36.40
2022-12-01T11:48:25.749Z,26.88
2022-12-01T11:51:24.217Z,31.63
2022-12-01T11:54:05.927Z,31.92
2022-12-01T11:56:32.708Z,20.20
2022-12-01T11:59:03.118Z,26.45
2022-12-01T12:01:48.424Z,24.08
2022-12-01T12:04:45.870Z,24.00
2022-12-01T12:07:30.561Z,24.83
2022-12-01T12:10:29.459Z,28.10
2022-12-01T12:13:07.956Z,20.77
2022-12-01T12:15:43.416Z,21.63
2022-12-01T12:18:48.627Z,23.45
2022-12-01T12:21:15.136Z,24.30
2022-12-01T12:24:25.792Z,19.42
2022-12-01T12:27:24.705Z,17.10
2022-12-01T12:30:24.327Z,23.40
2022-12-01T12:33:08.834Z,21.95
2022-12-01T12:35:51.113Z,19.90
2022-12-01T12:38:29.907Z,23.20
2022-12-01T12:41:11.873Z,21.13
2022-12-01T12:43:44.280Z,21.73
2022-12-01T12:49:18.687Z,18.65
2022-12-01T12:51:50.749Z,22.35
2022-12-01T12:54:31.536Z,19.35
2022-12-01T12:57:04.873Z,18.50
2022-12-01T12:59:45.174Z,17.98
2022-12-01T13:02:27.265Z,16.55
2022-12-01T13:05:06.845Z,19.40
2022-12-01T13:07:58.621Z,25.40
2022-12-01T13:10:58.089Z,16.63
2022-12-01T13:14:00.401Z,20.65
2022-12-01T13:16:38.042Z,17.45
2022-12-01T13:19:15.007Z,21.05
2022-12-01T13:21:44.649Z,20.40
2022-12-01T13:24:19.823Z,18.48
2022-12-01T13:26:53.493Z,15.65
2022-12-01T13:29:23.953Z,15.35
2022-12-01T13:31:53.430Z,18.08
2022-12-01T13:34:26.205Z,16.73
2022-12-01T13:36:55.081Z,15.02
2022-12-01T13:39:23.573Z,15.63
2022-12-01T13:41:59.421Z,20.80
2022-12-01T13:44:31.132Z,17.00
2022-12-01T13:47:09.473Z,15.18
2022-12-01T13:49:49.731Z,16.08
2022-12-01T13:52:22.500Z,12.55
2022-12-01T13:55:15.394Z,19.60
2022-12-01T13:57:49.005Z,16.00
2022-12-01T14:00:24.164Z,12.88
2022-12-01T14:03:12.884Z,14.60
2022-12-01T14:05:39.725Z,15.32
2022-12-01T14:08:27.861Z,20.75
2022-12-01T14:11:03.148Z,17.23
2022-12-01T14:13:31.612Z,18.40
2022-12-01T14:16:00.461Z,16.90
2022-12-01T14:18:48.490Z,17.35
2022-12-01T14:21:15.271Z,21.40
2022-12-01T14:24:05.083Z,16.80
2022-12-01T14:26:32.309Z,13.75
2022-12-01T14:29:01.818Z,19.38
2022-12-01T14:31:34.360Z,14.27
2022-12-01T14:34:24.389Z,18.98
2022-12-01T14:36:58.659Z,18.35
2022-12-01T14:39:29.188Z,22.08
2022-12-01T14:42:02.842Z,15.63
2022-12-01T14:44:31.528Z,14.45
2022-12-01T14:47:12.717Z,16.35
2022-12-01T14:49:46.833Z,16.45
2022-12-01T14:52:28.468Z,16.40
2022-12-01T14:55:05.749Z,14.82
2022-12-01T14:57:37.696Z,16.10
2022-12-01T15:00:04.809Z,18.77
2022-12-01T15:02:31.559Z,15.68
2022-12-01T15:05:09.393Z,12.68
2022-12-01T15:07:41.052Z,16.13
2022-12-01T15:10:22.507Z,14.20
2022-12-01T15:12:50.591Z,16.65
2022-12-01T15:15:26.692Z,17.10
2022-12-01T15:17:55.735Z,17.48
2022-12-01T15:20:35.970Z,19.30
2022-12-01T15:23:12.086Z,18.42
2022-12-01T15:25:42.810Z,17.30
2022-12-01T15:28:17.354Z,17.90
2022-12-01T15:30:47.789Z,18.55
2022-12-01T15:33:27.817Z,18.05
2022-12-01T15:35:57.114Z,16.48
2022-12-01T15:38:35.465Z,19.27
2022-12-01T15:41:28.571Z,14.23
2022-12-01T15:44:00.513Z,17.20
2022-12-01T15:46:29.906Z,19.17
2022-12-01T15:49:16.245Z,16.85
2022-12-01T15:51:43.127Z,15.18
2022-12-01T15:54:19.348Z,15.65
2022-12-01T15:56:46.726Z,14.57
2022-12-01T15:59:13.260Z,17.88
2022-12-01T16:01:42.851Z,16.48
2022-12-01T16:04:21.460Z,16.55
2022-12-01T16:06:58.076Z,16.13
2022-12-01T16:09:39.596Z,16.65
2022-12-01T16:12:18.137Z,18.58
2022-12-01T16:14:55.202Z,16.50
2022-12-01T16:17:23.360Z,21.35
2022-12-01T16:20:18.857Z,17.67
2022-12-01T16:22:47.360Z,18.35
2022-12-01T16:25:21.630Z,18.23
2022-12-01T16:27:53.805Z,20.10
2022-12-01T16:30:23.510Z,20.05
2022-12-01T16:32:50.335Z,22.73
2022-12-01T16:35:22.531Z,21.30
2022-12-01T16:37:49.134Z,22.77
2022-12-01T16:40:16.943Z,17.38
2022-12-01T16:42:43.642Z,19.77
2022-12-01T16:45:14.735Z,17.35
2022-12-01T16:47:42.533Z,14.70
2022-12-01T16:50:26.923Z,17.92
2022-12-01T16:52:53.645Z,21.45
2022-12-01T16:55:33.252Z,17.60
2022-12-01T16:58:01.133Z,18.75
2022-12-01T17:00:29.390Z,17.08
2022-12-01T17:02:57.187Z,20.90
2022-12-01T17:05:23.898Z,22.98
2022-12-01T17:07:51.114Z,19.00
2022-12-01T17:10:17.955Z,16.60
2022-12-01T17:12:44.559Z,18.13
2022-12-01T17:15:11.263Z,14.77
2022-12-01T17:17:38.161Z,18.88
2022-12-01T17:20:06.513Z,22.17
2022-12-01T17:22:33.125Z,19.63
2022-12-01T17:25:02.314Z,20.23
2022-12-01T17:27:31.449Z,18.63
2022-12-01T17:30:01.580Z,14.75
2022-12-01T17:32:28.499Z,19.15
2022-12-01T17:34:55.072Z,16.02
2022-12-01T17:37:21.928Z,17.60
2022-12-01T17:39:49.885Z,16.42
2022-12-01T17:42:16.936Z,14.18
2022-12-01T17:44:43.580Z,17.25
2022-12-01T17:47:10.398Z,15.90
2022-12-01T17:49:37.229Z,20.77
2022-12-01T17:52:05.523Z,19.90
2022-12-01T17:54:32.137Z,19.10
2022-12-01T17:56:58.850Z,19.25
2022-12-01T17:59:25.698Z,15.95
2022-12-01T18:01:52.400Z,14.70
2022-12-01T18:04:19.046Z,18.23
2022-12-01T18:06:49.330Z,19.83
2022-12-01T18:09:20.262Z,17.10
2022-12-01T18:11:48.711Z,18.25
2022-12-01T18:14:17.837Z,15.35
2022-12-01T18:16:45.186Z,15.40
2022-12-01T18:19:12.401Z,20.75
2022-12-01T18:21:39.867Z,14.73
2022-12-01T18:24:09.018Z,16.23
2022-12-01T18:26:37.563Z,15.57
2022-12-01T18:29:18.706Z,17.00
2022-12-01T18:31:45.994Z,13.95
2022-12-01T18:34:12.567Z,14.35
2022-12-01T18:36:40.587Z,18.02
2022-12-01T18:39:08.917Z,13.05
2022-12-01T18:41:36.102Z,15.63
2022-12-01T18:44:03.421Z,16.90
2022-12-01T18:46:30.181Z,15.23
2022-12-01T18:49:04.765Z,16.67
2022-12-01T18:51:34.237Z,14.40
2022-12-01T18:54:02.301Z,13.95
2022-12-01T18:56:29.643Z,14.02
2022-12-01T18:58:57.895Z,16.30
2022-12-01T19:01:28.798Z,14.45
2022-12-01T19:03:56.093Z,18.83
2022-12-01T19:06:23.187Z,13.43
2022-12-01T19:08:49.938Z,14.70
2022-12-01T19:11:16.831Z,16.10
2022-12-01T19:13:43.740Z,15.77
2022-12-01T19:16:13.423Z,16.50
2022-12-01T19:18:40.153Z,15.80
2022-12-01T19:21:08.390Z,15.82
2022-12-01T19:23:35.369Z,15.65
2022-12-01T19:26:11.613Z,16.38
2022-12-01T19:28:38.829Z,17.30
2022-12-01T19:31:13.945Z,22.48
2022-12-01T19:33:41.233Z,14.75
2022-12-01T19:36:13.673Z,17.67
2022-12-01T19:41:08.354Z,14.82
2022-12-01T19:43:35.606Z,15.98
2022-12-01T19:46:11.248Z,18.02
2022-12-01T19:48:37.968Z,17.05
2022-12-01T19:51:04.984Z,17.95
2022-12-01T19:53:33.860Z,18.77
2022-12-01T19:56:02.687Z,14.00
2022-12-01T19:58:29.676Z,15.95
2022-12-01T20:01:05.838Z,19.10
2022-12-01T20:03:32.670Z,17.30
2022-12-01T20:06:04.501Z,15.77
2022-12-01T20:08:35.510Z,17.92
2022-12-01T20:11:04.298Z,18.35
2022-12-01T20:13:35.552Z,16.27
2022-12-01T20:16:04.798Z,16.10
2022-12-01T20:18:32.088Z,15.88
2022-12-01T20:21:09.351Z,13.82
2022-12-01T20:23:36.575Z,16.58
2022-12-01T20:26:06.662Z,15.77
2022-12-01T20:28:33.969Z,14.73
2022-12-01T20:31:00.735Z,14.75
2022-12-01T20:33:27.850Z,15.93
2022-12-01T20:35:54.494Z,15.57
2022-12-01T20:38:27.068Z,16.95
2022-12-01T20:40:54.454Z,13.63
2022-12-01T20:43:21.230Z,15.38
2022-12-01T20:45:48.095Z,16.85
2022-12-01T20:48:14.863Z,18.70
2022-12-01T20:50:41.650Z,15.63
2022-12-01T20:53:08.362Z,24.52
2022-12-01T20:55:36.892Z,17.45
2022-12-01T20:58:04.973Z,20.85
2022-12-01T21:00:31.655Z,17.27
2022-12-01T21:02:58.225Z,13.00
2022-12-01T21:05:25.734Z,24.13
2022-12-01T21:07:52.782Z,16.52
2022-12-01T21:10:20.289Z,18.30
2022-12-01T21:13:09.551Z,15.50
2022-12-01T21:15:46.591Z,14.63
2022-12-01T21:18:23.461Z,16.40
2022-12-01T21:20:55.262Z,15.80
2022-12-01T21:23:21.952Z,13.52
2022-12-01T21:25:49.298Z,13.02
2022-12-01T21:28:18.423Z,16.33
2022-12-01T21:30:47.023Z,17.88
2022-12-01T21:33:27.527Z,13.13
2022-12-01T21:35:55.900Z,12.05
2022-12-01T21:38:23.143Z,13.73
2022-12-01T21:40:49.741Z,13.57
2022-12-01T21:43:24.071Z,13.98
2022-12-01T21:45:58.332Z,15.75
2022-12-01T21:48:25.097Z,14.05
2022-12-01T21:50:59.081Z,14.27
2022-12-01T21:53:33.241Z,15.60
2022-12-01T21:55:59.842Z,14.32
2022-12-01T21:58:30.675Z,15.95
2022-12-01T22:00:59.124Z,16.13
2022-12-01T22:03:33.079Z,15.10
2022-12-01T22:06:29.865Z,16.00
2022-12-01T22:09:01.066Z,12.85
2022-12-01T22:11:29.602Z,17.15
2022-12-01T22:14:10.850Z,14.05
2022-12-01T22:16:45.599Z,15.70
2022-12-01T22:19:15.199Z,14.15
2022-12-01T22:21:46.779Z,15.55
2022-12-01T22:24:39.973Z,15.05
2022-12-01T22:27:13.074Z,17.60
2022-12-01T22:29:44.192Z,14.38
2022-12-01T22:32:13.743Z,25.27
2022-12-01T22:34:45.318Z,23.45
2022-12-01T22:37:19.458Z,15.02
2022-12-01T22:39:47.827Z,17.08
2022-12-01T22:42:21.427Z,12.65
2022-12-01T22:44:48.178Z,15.63
2022-12-01T22:47:15.266Z,14.75
2022-12-01T22:49:42.673Z,13.63
2022-12-01T22:52:19.532Z,17.23
2022-12-01T22:54:49.372Z,14.77
2022-12-01T22:57:26.725Z,15.75
2022-12-01T22:59:54.712Z,14.40
2022-12-01T23:02:21.494Z,14.38
2022-12-01T23:04:51.893Z,16.35
2022-12-01T23:07:30.456Z,10.98
2022-12-01T23:10:24.438Z,15.68
2022-12-01T23:12:53.233Z,14.82
2022-12-01T23:15:23.646Z,15.38
2022-12-01T23:17:51.089Z,15.63
2022-12-01T23:20:20.625Z,11.88
2022-12-01T23:22:47.955Z,14.30
2022-12-01T23:25:16.078Z,14.95
2022-12-01T23:27:44.230Z,13.00
2022-12-01T23:30:12.292Z,15.25
2022-12-01T23:32:39.102Z,14.40
2022-12-01T23:35:10.713Z,12.57
2022-12-01T23:37:40.033Z,15.50
2022-12-01T23:40:20.444Z,14.55
2022-12-01T23:42:47.277Z,15.45
2022-12-01T23:45:22.745Z,12.90
2022-12-01T23:47:50.187Z,15.02
2022-12-01T23:50:21.974Z,14.57
2022-12-01T23:52:48.626Z,13.52
2022-12-01T23:55:25.755Z,15.77
2022-12-01T23:57:53.000Z,14.57
